Time;durP1;ratioP1;P1;durP2;ratioP2;P2;SDS_P1;SDS_P2;PMS_P1;PMS_P2;Temp;Humidity;BMP_temperature;BMP_pressure;BME280_temperature;BME280_humidity;BME280_pressure;Samples;Min_cycle;Max_cycle;Signal;HPM_P1;HPM_P2
2020/12/06 00:01:42;;;;;;;17.13;6.97;;;;;;;;;;5095206;28;20198;-73
2020/12/06 00:04:09;;;;;;;14.77;7.60;;;5.00;1.00;;;;;;5094879;28;20407;-73
2020/12/06 00:06:52;;;;;;;15.93;6.85;;;5.00;1.00;;;;;;5095405;28;20609;-74
2020/12/06 00:09:18;;;;;;;15.95;7.15;;;5.00;1.00;;;;;;5093345;28;20719;-73
2020/12/06 00:12:40;;;;;;;13.10;7.20;;;5.00;1.00;;;;;;5095417;28;20202;-77
2020/12/06 00:15:40;;;;;;;14.18;6.53;;;4.80;1.00;;;;;;5092042;28;20162;-77
2020/12/06 00:24:50;;;;;;;21.20;6.57;;;4.80;1.00;;;;;;5076057;28;20213;-74
2020/12/06 00:27:17;;;;;;;20.38;6.75;;;4.80;1.00;;;;;;5094943;28;20158;-73
2020/12/06 00:29:46;;;;;;;16.95;7.55;;;4.80;1.00;;;;;;5092638;28;20574;-73
2020/12/06 00:32:12;;;;;;;17.48;7.90;;;4.80;1.00;;;;;;5077872;28;20634;-73
2020/12/06 00:34:37;;;;;;;16.00;7.73;;;4.90;1.00;;;;;;5078459;28;20183;-73
2020/12/06 00:37:03;;;;;;;20.17;8.53;;;4.90;1.00;;;;;;5074797;28;20183;-73
2020/12/06 00:39:29;;;;;;;18.33;8.17;;;5.00;1.00;;;;;;5074342;28;20167;-73
2020/12/06 00:41:54;;;;;;;20.77;8.13;;;5.00;1.00;;;;;;5075435;28;20252;-74
2020/12/06 00:44:20;;;;;;;21.03;7.97;;;;;;;;;;5074217;28;20221;-73
2020/12/06 00:46:46;;;;;;;15.98;8.32;;;5.00;1.00;;;;;;5074439;28;20621;-74
2020/12/06 00:49:16;;;;;;;18.17;8.70;;;4.90;1.00;;;;;;5088106;28;20172;-74
2020/12/06 00:51:52;;;;;;;20.80;9.00;;;4.90;1.00;;;;;;5083666;28;20839;-74
2020/12/06 00:54:22;;;;;;;18.40;8.57;;;5.00;1.00;;;;;;5074151;28;20564;-74
2020/12/06 01:00:11;;;;;;;20.50;8.50;;;5.00;1.00;;;;;;5074213;28;20158;-77
2020/12/06 01:05:58;;;;;;;14.52;7.82;;;4.80;1.00;;;;;;5073432;28;20185;-77
2020/12/06 01:09:04;;;;;;;17.23;7.93;;;4.90;1.00;;;;;;5074898;28;20167;-77
2020/12/06 01:18:40;;;;;;;19.30;7.55;;;4.90;1.00;;;;;;5088219;28;20185;-76
2020/12/06 01:27:58;;;;;;;18.05;8.77;;;4.80;1.00;;;;;;5081740;28;20209;-74
2020/12/06 01:30:24;;;;;;;20.05;8.05;;;4.80;1.00;;;;;;5073835;28;20552;-73
2020/12/06 01:32:52;;;;;;;20.00;8.80;;;4.80;1.00;;;;;;5073619;28;20246;-73
2020/12/06 01:35:18;;;;;;;27.30;10.63;;;4.70;1.00;;;;;;5073674;28;20187;-74
2020/12/06 01:37:44;;;;;;;20.00;8.50;;;4.80;1.00;;;;;;5073786;28;20172;-74
2020/12/06 01:40:10;;;;;;;21.20;7.70;;;4.80;1.00;;;;;;5073582;28;20160;-73
2020/12/06 01:42:36;;;;;;;18.60;8.60;;;4.80;1.00;;;;;;5081922;28;20318;-76
2020/12/06 01:45:10;;;;;;;22.87;10.07;;;4.80;1.00;;;;;;5088109;28;20575;-77
2020/12/06 01:47:40;;;;;;;19.60;9.40;;;4.80;1.00;;;;;;5073918;28;20155;-76
2020/12/06 01:53:47;;;;;;;19.52;8.15;;;4.80;1.00;;;;;;5092959;28;20177;-76
2020/12/06 01:56:13;;;;;;;24.10;8.52;;;4.80;1.00;;;;;;5093917;28;20159;-73
2020/12/06 01:58:39;;;;;;;16.33;6.50;;;4.80;1.00;;;;;;5093624;28;20524;-74
2020/12/06 02:01:08;;;;;;;20.42;8.15;;;4.40;1.00;;;;;;5093382;28;20448;-74
2020/12/06 02:03:34;;;;;;;16.65;7.60;;;4.30;1.00;;;;;;5091553;28;20182;-74
2020/12/06 02:06:00;;;;;;;17.75;8.20;;;4.40;1.00;;;;;;5093643;28;20241;-74
2020/12/06 02:08:41;;;;;;;15.77;7.00;;;4.40;1.00;;;;;;5080966;28;20250;-74
2020/12/06 02:11:26;;;;;;;18.30;8.63;;;4.40;1.00;;;;;;5073749;28;20159;-74
2020/12/06 02:13:52;;;;;;;20.58;8.27;;;4.50;1.00;;;;;;5076013;28;20183;-74
2020/12/06 02:16:18;;;;;;;17.97;7.10;;;4.60;1.00;;;;;;5073513;28;20167;-74
2020/12/06 02:18:43;;;;;;;16.20;7.50;;;4.60;1.00;;;;;;5073231;28;20174;-74
2020/12/06 02:21:09;;;;;;;14.87;7.83;;;4.70;1.00;;;;;;5073141;28;20187;-74
2020/12/06 02:23:52;;;;;;;18.63;7.97;;;4.80;1.00;;;;;;5073149;28;20621;-74
2020/12/06 02:26:18;;;;;;;17.30;7.53;;;4.80;1.00;;;;;;5072394;28;20530;-74
2020/12/06 02:28:43;;;;;;;18.33;7.97;;;4.90;1.00;;;;;;5077554;28;20172;-74
2020/12/06 02:31:11;;;;;;;16.83;8.47;;;4.80;1.00;;;;;;5073025;28;20164;-74
2020/12/06 02:33:40;;;;;;;15.38;7.78;;;4.80;1.00;;;;;;5088770;28;20167;-74
2020/12/06 02:36:16;;;;;;;15.93;8.15;;;4.80;1.00;;;;;;5073394;28;20508;-74
2020/12/06 02:38:42;;;;;;;17.85;6.75;;;4.90;1.00;;;;;;5077865;28;20245;-73
2020/12/06 02:41:46;;;;;;;21.60;7.23;;;4.60;1.00;;;;;;5076997;28;20285;-76
2020/12/06 02:47:33;;;;;;;13.70;6.82;;;4.60;1.00;;;;;;5096337;28;20219;-76
2020/12/06 02:50:46;;;;;;;13.97;7.30;;;4.60;1.00;;;;;;5078510;28;20175;-76
2020/12/06 02:53:12;;;;;;;15.15;7.82;;;4.60;1.00;;;;;;5077358;28;20175;-76
2020/12/06 02:58:59;;;;;;;12.88;5.85;;;4.60;1.00;;;;;;5076272;28;20189;-77
2020/12/06 03:04:59;;;;;;;19.15;8.07;;;4.80;1.00;;;;;;5076889;28;20182;-76
2020/12/06 03:08:16;;;;;;;17.05;7.55;;;4.60;1.00;;;;;;5075906;28;20542;-77
2020/12/06 03:11:34;;;;;;;15.10;7.65;;;4.70;1.00;;;;;;5076274;28;20159;-76
2020/12/06 03:14:40;;;;;;;14.32;6.65;;;4.70;1.00;;;;;;5079533;28;20166;-76
2020/12/06 03:17:10;;;;;;;13.45;6.40;;;4.80;1.00;;;;;;5076188;28;20159;-77
2020/12/06 03:23:40;;;;;;;12.90;5.47;;;4.90;1.00;;;;;;5083417;28;20224;-76
2020/12/06 03:26:05;;;;;;;14.10;6.75;;;4.90;1.00;;;;;;5075747;28;20163;-77
2020/12/06 03:28:31;;;;;;;13.17;6.90;;;4.90;1.00;;;;;;5076124;28;20167;-74
2020/12/06 03:31:04;;;;;;;13.37;6.67;;;4.90;1.00;;;;;;5089182;28;20169;-74
2020/12/06 03:33:40;;;;;;;14.32;7.18;;;5.00;1.00;;;;;;5095933;28;20586;-74
2020/12/06 03:36:10;;;;;;;15.13;7.43;;;4.80;1.00;;;;;;5095263;28;20607;-73
2020/12/06 03:38:36;;;;;;;16.85;7.43;;;4.90;1.00;;;;;;5095550;28;20670;-74
2020/12/06 03:41:02;;;;;;;16.03;7.37;;;4.90;1.00;;;;;;5078247;28;20203;-74
2020/12/06 03:43:28;;;;;;;18.92;7.43;;;5.00;1.00;;;;;;5075780;28;20194;-74
2020/12/06 03:45:53;;;;;;;15.57;7.17;;;4.90;1.00;;;;;;5075515;28;20151;-74
2020/12/06 03:48:19;;;;;;;19.73;8.07;;;5.00;1.00;;;;;;5074950;28;20181;-74
2020/12/06 03:50:45;;;;;;;17.70;7.70;;;5.10;1.00;;;;;;5079372;28;20178;-74
2020/12/06 03:53:11;;;;;;;16.10;7.40;;;5.10;1.00;;;;;;5075340;28;20246;-73
2020/12/06 03:55:36;;;;;;;14.87;7.00;;;5.10;1.00;;;;;;5076173;28;20171;-73
2020/12/06 03:58:07;;;;;;;14.10;7.20;;;5.10;1.00;;;;;;5075730;28;20310;-73
2020/12/06 04:00:34;;;;;;;18.42;7.70;;;5.10;1.00;;;;;;5075817;28;20186;-74
2020/12/06 04:03:10;;;;;;;15.48;7.90;;;5.10;1.00;;;;;;5095306;28;20159;-74
2020/12/06 04:05:36;;;;;;;13.70;7.00;;;5.10;1.00;;;;;;5095375;28;20470;-74
2020/12/06 04:08:02;;;;;;;14.90;6.93;;;5.90;1.00;;;;;;5090260;28;20200;-74
2020/12/06 04:10:28;;;;;;;15.30;6.73;;;5.20;1.00;;;;;;5075011;28;20162;-74
2020/12/06 04:12:54;;;;;;;13.05;6.47;;;5.20;1.00;;;;;;5083578;28;20423;-74
2020/12/06 04:15:20;;;;;;;18.87;8.20;;;5.20;1.00;;;;;;5095140;28;20166;-74
2020/12/06 04:17:46;;;;;;;14.57;7.20;;;5.30;1.00;;;;;;5092926;28;20635;-74
2020/12/06 04:20:12;;;;;;;17.27;7.03;;;5.20;1.00;;;;;;5094923;28;20212;-74
2020/12/06 04:22:38;;;;;;;16.93;6.90;;;5.20;1.00;;;;;;5094885;28;20231;-74
2020/12/06 04:25:04;;;;;;;14.83;7.43;;;;;;;;;;5094963;28;20212;-74
2020/12/06 04:27:35;;;;;;;13.63;7.00;;;5.20;1.00;;;;;;5095369;28;20155;-77
2020/12/06 04:33:52;;;;;;;12.60;6.90;;;5.30;1.00;;;;;;5075777;28;20198;-77
2020/12/06 04:36:22;;;;;;;15.73;6.70;;;5.30;1.00;;;;;;5074868;28;20182;-77
2020/12/06 04:43:00;;;;;;;12.60;6.20;;;5.30;1.00;;;;;;5074532;28;20780;-76
2020/12/06 04:45:42;;;;;;;15.65;6.47;;;5.40;1.00;;;;;;5073918;28;20197;-77
2020/12/06 04:55:24;;;;;;;14.80;6.85;;;5.30;1.00;;;;;;5074829;28;20287;-77
2020/12/06 05:01:15;;;;;;;13.25;6.55;;;5.20;1.00;;;;;;5092523;28;20198;-77
2020/12/06 05:07:23;;;;;;;12.65;6.35;;;5.30;1.00;;;;;;5074009;28;20256;-78
2020/12/06 05:09:49;;;;;;;10.70;6.68;;;5.30;1.00;;;;;;5073785;28;20167;-78
2020/12/06 05:12:46;;;;;;;17.30;8.20;;;5.20;1.00;;;;;;5074145;28;20159;-77
2020/12/06 05:19:10;;;;;;;15.63;7.00;;;5.30;1.00;;;;;;5094108;28;20177;-77
2020/12/06 05:21:41;;;;;;;16.02;6.70;;;5.40;1.00;;;;;;5092284;28;20268;-78
2020/12/06 05:24:07;;;;;;;11.38;6.60;;;5.40;1.00;;;;;;5074088;28;20170;-77
2020/12/06 05:26:35;;;;;;;17.50;7.50;;;5.40;1.00;;;;;;5073857;28;20578;-77
2020/12/06 05:29:02;;;;;;;14.05;6.75;;;5.40;1.00;;;;;;5074322;28;20163;-73
2020/12/06 05:31:29;;;;;;;18.50;7.43;;;5.40;1.00;;;;;;5086121;28;20257;-74
2020/12/06 05:33:59;;;;;;;16.45;7.53;;;5.40;1.00;;;;;;5093813;28;20158;-73
2020/12/06 05:36:24;;;;;;;15.68;6.85;;;5.40;1.00;;;;;;5093140;28;20188;-74
2020/12/06 05:38:50;;;;;;;11.70;6.50;;;5.30;1.00;;;;;;5086425;28;20215;-73
2020/12/06 05:41:23;;;;;;;16.70;7.33;;;5.40;1.00;;;;;;5073601;28;20500;-74
2020/12/06 05:43:48;;;;;;;16.70;7.60;;;5.30;1.00;;;;;;5073828;28;20197;-74
2020/12/06 05:46:15;;;;;;;16.60;7.37;;;5.20;1.00;;;;;;5074539;28;20178;-73
2020/12/06 05:48:43;;;;;;;13.60;6.97;;;5.40;1.00;;;;;;5083336;28;20171;-74
2020/12/06 05:51:10;;;;;;;16.52;7.57;;;5.20;1.00;;;;;;5093724;28;20194;-73
2020/12/06 05:53:36;;;;;;;15.60;7.07;;;5.20;1.00;;;;;;5076965;28;20225;-73
2020/12/06 05:56:14;;;;;;;18.43;7.03;;;5.20;1.00;;;;;;5073198;28;20568;-73
2020/12/06 05:58:42;;;;;;;12.43;6.50;;;5.20;1.00;;;;;;5078887;28;20420;-73
2020/12/06 06:01:18;;;;;;;13.68;6.18;;;5.30;1.00;;;;;;5093544;28;20200;-73
2020/12/06 06:03:47;;;;;;;13.63;6.47;;;5.30;1.00;;;;;;5093621;28;20154;-73
2020/12/06 06:06:19;;;;;;;14.25;7.45;;;5.10;1.00;;;;;;5093601;28;20495;-74
2020/12/06 06:08:49;;;;;;;18.45;7.82;;;5.00;1.00;;;;;;5081718;28;20163;-73
2020/12/06 06:11:18;;;;;;;16.40;7.00;;;5.00;1.00;;;;;;5076530;28;20183;-73
2020/12/06 06:14:11;;;;;;;17.98;7.55;;;5.10;1.00;;;;;;5075026;28;20219;-74
2020/12/06 06:16:41;;;;;;;15.77;7.40;;;5.10;1.00;;;;;;5077146;28;20156;-74
2020/12/06 06:19:11;;;;;;;16.25;7.30;;;5.00;1.00;;;;;;5076840;28;20217;-74
2020/12/06 06:21:44;;;;;;;14.60;7.10;;;5.30;1.00;;;;;;5076855;28;20631;-74
2020/12/06 06:24:13;;;;;;;17.63;7.57;;;5.10;1.00;;;;;;5076797;28;20503;-74
2020/12/06 06:26:45;;;;;;;14.68;7.20;;;5.00;1.00;;;;;;5081815;28;20190;-73
2020/12/06 06:29:12;;;;;;;14.63;7.53;;;5.10;1.00;;;;;;5095938;28;20556;-74
2020/12/06 06:31:39;;;;;;;14.15;6.88;;;5.00;1.00;;;;;;5096865;28;20170;-73
2020/12/06 06:34:17;;;;;;;18.98;8.38;;;5.20;1.00;;;;;;5092757;28;20194;-77
2020/12/06 06:37:17;;;;;;;19.50;8.55;;;5.20;1.00;;;;;;5077116;28;20185;-78
2020/12/06 06:39:43;;;;;;;18.80;8.27;;;5.40;1.00;;;;;;5076527;28;20185;-76
2020/12/06 06:42:24;;;;;;;20.27;7.05;;;5.40;1.00;;;;;;5076184;28;20207;-77
2020/12/06 06:45:34;;;;;;;20.90;7.85;;;5.40;1.00;;;;;;5076691;28;20186;-78
2020/12/06 06:48:17;;;;;;;16.67;7.25;;;5.50;1.00;;;;;;5075116;28;20225;-78
2020/12/06 06:50:47;;;;;;;17.60;7.63;;;5.40;1.00;;;;;;5079909;28;20224;-79
2020/12/06 07:00:04;;;;;;;17.67;8.18;;;5.40;1.00;;;;;;5076764;28;20212;-76
2020/12/06 07:02:46;;;;;;;21.67;8.65;;;5.40;1.00;;;;;;5076148;28;20198;-76
2020/12/06 07:05:22;;;;;;;17.70;7.43;;;5.50;1.00;;;;;;5076643;28;20190;-76
2020/12/06 07:07:59;;;;;;;17.05;8.35;;;5.50;1.00;;;;;;5076098;28;20175;-76
2020/12/06 07:10:29;;;;;;;16.48;7.95;;;5.50;1.00;;;;;;5088998;28;20173;-76
2020/12/06 07:13:17;;;;;;;18.35;7.88;;;5.50;1.00;;;;;;5079144;28;20167;-76
2020/12/06 07:16:10;;;;;;;17.90;8.70;;;5.50;1.00;;;;;;5076239;28;20155;-79
2020/12/06 07:18:58;;;;;;;20.17;8.77;;;5.50;1.00;;;;;;5076769;28;20171;-79
2020/12/06 07:24:46;;;;;;;19.15;9.40;;;5.50;1.00;;;;;;5075362;28;20158;-78
2020/12/06 07:27:46;;;;;;;18.03;8.33;;;5.40;1.00;;;;;;5075935;28;20148;-79
2020/12/06 07:31:04;;;;;;;15.43;7.80;;;5.40;1.00;;;;;;5077125;28;20170;-79
2020/12/06 07:33:30;;;;;;;17.10;7.63;;;5.50;1.00;;;;;;5076260;28;20155;-79
2020/12/06 07:46:15;;;;;;;14.77;7.53;;;5.50;1.00;;;;;;5076055;28;20202;-76
2020/12/06 07:48:48;;;;;;;14.52;7.78;;;5.50;1.00;;;;;;5075253;28;20152;-76
2020/12/06 07:51:34;;;;;;;19.45;8.43;;;5.60;1.00;;;;;;5075515;28;20179;-76
2020/12/06 07:54:46;;;;;;;13.50;7.28;;;5.60;1.00;;;;;;5076140;28;20175;-76
2020/12/06 07:57:24;;;;;;;17.33;8.15;;;5.60;1.00;;;;;;5075060;28;20151;-76
2020/12/06 08:00:00;;;;;;;16.45;8.65;;;5.60;1.00;;;;;;5088658;28;20177;-77
2020/12/06 08:02:30;;;;;;;17.20;8.02;;;5.70;1.00;;;;;;5075026;28;20190;-77
2020/12/06 08:05:00;;;;;;;19.43;9.30;;;5.70;1.00;;;;;;5075424;28;20159;-76
2020/12/06 08:07:47;;;;;;;15.05;7.20;;;5.70;1.00;;;;;;5079869;28;20785;-76
2020/12/06 08:10:18;;;;;;;17.02;9.05;;;5.80;1.00;;;;;;5095529;28;20230;-76
2020/12/06 08:12:50;;;;;;;19.20;8.75;;;5.80;1.00;;;;;;5095402;28;20191;-74
2020/12/06 08:22:44;;;;;;;21.80;7.90;;;5.90;1.00;;;;;;5089826;28;20460;-77
2020/12/06 08:25:23;;;;;;;17.02;8.25;;;5.80;1.00;;;;;;5094907;28;20174;-77
2020/12/06 08:28:05;;;;;;;17.50;8.35;;;5.90;1.00;;;;;;5078331;28;20225;-77
2020/12/06 08:30:31;;;;;;;15.07;7.13;;;5.90;1.00;;;;;;5073401;28;20532;-74
2020/12/06 08:33:04;;;;;;;27.60;11.40;;;5.90;1.00;;;;;;5075111;28;20418;-74
2020/12/06 08:35:40;;;;;;;22.08;7.60;;;5.90;1.00;;;;;;5074085;28;20175;-74
2020/12/06 08:38:32;;;;;;;18.58;7.72;;;5.90;1.00;;;;;;5080558;28;20629;-75
2020/12/06 08:41:00;;;;;;;20.73;8.73;;;5.90;1.00;;;;;;5074530;28;20208;-74
2020/12/06 08:43:50;;;;;;;16.92;7.05;;;5.90;1.00;;;;;;5076616;28;20504;-74
2020/12/06 08:46:29;;;;;;;16.13;7.63;;;6.00;1.00;;;;;;5074699;28;20669;-76
2020/12/06 08:52:35;;;;;;;17.45;8.30;;;6.00;1.00;;;;;;5094685;28;20193;-75
2020/12/06 08:59:04;;;;;;;14.45;7.30;;;6.10;1.00;;;;;;5094214;28;20714;-76
2020/12/06 09:02:01;;;;;;;18.03;7.40;;;6.10;1.00;;;;;;5094640;28;20197;-76
2020/12/06 09:07:58;;;;;;;18.30;8.40;;;6.10;1.00;;;;;;4992497;28;20428;-77
2020/12/06 09:10:40;;;;;;;18.50;8.47;;;6.10;1.00;;;;;;4992848;28;20411;-77
2020/12/06 09:13:58;;;;;;;20.40;9.13;;;6.20;1.00;;;;;;4995921;28;20882;-76
2020/12/06 09:16:29;;;;;;;20.93;9.47;;;6.20;1.00;;;;;;5010857;28;20408;-74
2020/12/06 09:19:16;;;;;;;16.77;7.97;;;6.20;1.00;;;;;;4992644;28;20409;-74
2020/12/06 09:21:46;;;;;;;21.70;9.20;;;6.30;1.00;;;;;;4992348;28;20955;-74
2020/12/06 09:24:23;;;;;;;17.73;8.95;;;6.30;1.00;;;;;;4992357;28;20879;-74
2020/12/06 09:26:48;;;;;;;18.30;8.10;;;6.30;1.00;;;;;;4992845;28;20168;-75
2020/12/06 09:29:15;;;;;;;18.17;8.47;;;6.30;1.00;;;;;;5004847;28;20420;-74
2020/12/06 09:31:41;;;;;;;21.00;8.87;;;6.30;1.00;;;;;;5012403;28;20609;-74
2020/12/06 09:34:28;;;;;;;21.07;9.40;;;6.30;1.00;;;;;;5012058;28;20412;-75
2020/12/06 09:36:54;;;;;;;17.40;7.77;;;6.40;1.00;;;;;;5012112;28;20196;-75
2020/12/06 09:39:20;;;;;;;16.47;8.47;;;6.40;1.00;;;;;;5005696;28;20417;-74
2020/12/06 09:41:53;;;;;;;15.07;7.50;;;6.40;1.00;;;;;;5080361;28;20204;-74
2020/12/06 09:44:23;;;;;;;22.67;9.20;;;6.50;1.00;;;;;;5086618;28;20544;-75
2020/12/06 09:46:49;;;;;;;17.07;8.37;;;6.60;1.00;;;;;;5073712;28;20472;-74
2020/12/06 09:49:17;;;;;;;26.80;11.20;;;6.60;1.00;;;;;;5078054;28;20456;-75
2020/12/06 09:51:43;;;;;;;22.93;9.67;;;6.60;1.00;;;;;;5077563;28;20492;-75
2020/12/06 09:54:08;;;;;;;18.30;9.13;;;6.70;1.00;;;;;;5086390;28;20445;-74
2020/12/06 09:56:34;;;;;;;19.53;9.60;;;;;;;;;;5090116;28;20817;-74
2020/12/06 09:59:00;;;;;;;26.77;13.30;;;6.70;1.00;;;;;;5097945;28;20753;-74
2020/12/06 10:01:26;;;;;;;29.73;12.40;;;6.80;1.00;;;;;;5087898;28;20453;-75
2020/12/06 10:03:59;;;;;;;28.57;12.87;;;9.10;1.00;;;;;;5080502;28;20197;-74
2020/12/06 10:06:29;;;;;;;19.70;8.87;;;6.80;1.00;;;;;;5093700;28;20171;-75
2020/12/06 10:08:59;;;;;;;20.13;8.80;;;6.90;1.00;;;;;;5077351;28;20413;-74
2020/12/06 10:11:24;;;;;;;17.70;8.67;;;6.80;1.00;;;;;;5077338;28;20914;-74
2020/12/06 10:13:53;;;;;;;24.30;8.10;;;6.90;1.00;;;;;;5077275;28;20401;-75
2020/12/06 10:16:35;;;;;;;28.83;12.20;;;8.10;1.00;;;;;;5091779;28;20640;-75
2020/12/06 10:19:22;;;;;;;21.57;10.27;;;6.90;1.00;;;;;;5097087;28;20509;-77
2020/12/06 10:21:53;;;;;;;23.47;10.20;;;7.00;1.00;;;;;;5083341;28;20456;-76
2020/12/06 10:24:18;;;;;;;20.43;9.60;;;7.00;1.00;;;;;;5081203;28;20555;-76
2020/12/06 10:26:54;;;;;;;21.50;8.77;;;7.00;1.00;;;;;;5076576;28;20413;-76
2020/12/06 10:29:40;;;;;;;20.97;8.83;;;7.10;1.00;;;;;;5077337;28;20170;-77
2020/12/06 10:32:11;;;;;;;24.27;11.20;;;7.10;1.00;;;;;;5097319;28;20940;-75
2020/12/06 10:34:41;;;;;;;23.30;10.07;;;7.10;1.00;;;;;;5095013;28;20408;-74
2020/12/06 10:37:06;;;;;;;19.40;10.27;;;7.10;1.00;;;;;;5097642;28;20453;-75
2020/12/06 10:39:32;;;;;;;18.90;8.83;;;7.20;1.00;;;;;;5097247;28;20396;-75
2020/12/06 10:41:58;;;;;;;20.50;9.20;;;8.90;1.00;;;;;;5096881;28;20194;-75
2020/12/06 10:44:28;;;;;;;22.57;9.20;;;8.90;1.00;;;;;;5081538;28;20177;-75
2020/12/06 10:47:11;;;;;;;24.57;9.17;;;7.30;1.00;;;;;;5076864;28;20922;-76
2020/12/06 10:49:47;;;;;;;15.07;7.87;;;7.40;1.00;;;;;;5076500;28;20519;-75
2020/12/06 10:52:23;;;;;;;16.90;8.10;;;7.40;1.00;;;;;;5079923;28;20772;-75
2020/12/06 10:54:51;;;;;;;20.47;8.90;;;7.30;1.00;;;;;;5096935;28;20737;-75
2020/12/06 10:57:18;;;;;;;20.47;8.10;;;7.30;1.00;;;;;;5087309;28;20425;-75
2020/12/06 10:59:47;;;;;;;21.67;7.60;;;7.30;1.00;;;;;;5075837;28;20749;-76
2020/12/06 11:02:23;;;;;;;18.63;8.40;;;7.20;1.00;;;;;;5076657;28;20855;-77
2020/12/06 11:04:53;;;;;;;21.03;9.23;;;7.10;1.00;;;;;;5076389;28;20401;-76
2020/12/06 11:07:23;;;;;;;16.43;7.90;;;7.10;1.00;;;;;;5076422;28;20740;-76
2020/12/06 11:09:53;;;;;;;20.07;9.13;;;7.10;1.00;;;;;;5078069;28;20417;-76
2020/12/06 11:12:35;;;;;;;19.37;9.47;;;6.90;1.00;;;;;;5084415;28;20471;-76
2020/12/06 11:15:00;;;;;;;17.60;8.17;;;6.80;1.00;;;;;;5089633;28;20973;-75
2020/12/06 11:17:30;;;;;;;48.00;21.03;;;6.80;1.00;;;;;;5106491;28;20455;-75
2020/12/06 11:19:57;;;;;;;24.40;10.13;;;6.80;1.00;;;;;;5116553;28;20154;-75
2020/12/06 11:22:23;;;;;;;24.90;8.33;;;6.80;1.00;;;;;;5115153;28;20558;-74
2020/12/06 11:24:49;;;;;;;25.40;9.83;;;6.70;1.00;;;;;;5116399;28;20821;-75
2020/12/06 11:27:29;;;;;;;24.20;10.07;;;6.60;1.00;;;;;;5116406;28;20396;-74
2020/12/06 11:30:05;;;;;;;147.73;45.20;;;6.50;1.00;;;;;;5116533;28;20605;-74
2020/12/06 11:32:31;;;;;;;45.60;14.27;;;6.50;1.00;;;;;;5116569;28;20392;-75
2020/12/06 11:35:11;;;;;;;31.70;11.17;;;6.50;1.00;;;;;;5114628;28;20468;-75
2020/12/06 11:38:16;;;;;;;26.13;9.70;;;6.50;1.00;;;;;;5095644;28;20194;-75
2020/12/06 11:41:16;;;;;;;26.67;10.23;;;6.50;1.00;;;;;;5085918;28;20936;-75
2020/12/06 11:43:42;;;;;;;21.87;9.00;;;6.40;1.00;;;;;;5075563;28;20426;-76
2020/12/06 11:46:11;;;;;;;21.20;8.50;;;6.40;1.00;;;;;;5074962;28;20424;-75
2020/12/06 11:48:36;;;;;;;23.87;10.57;;;6.40;1.00;;;;;;5075891;28;20783;-75
2020/12/06 11:51:05;;;;;;;27.40;10.90;;;6.40;1.00;;;;;;5075471;28;20393;-75
2020/12/06 11:53:41;;;;;;;116.40;36.53;;;6.40;1.00;;;;;;5075352;28;20171;-75
2020/12/06 11:56:08;;;;;;;28.30;11.57;;;6.40;1.00;;;;;;5075543;28;20434;-75
2020/12/06 11:58:33;;;;;;;31.87;13.30;;;6.30;1.00;;;;;;5074333;28;20956;-75
2020/12/06 12:00:59;;;;;;;24.10;10.80;;;6.40;1.00;;;;;;5076928;28;20512;-75
2020/12/06 12:03:28;;;;;;;30.43;11.07;;;7.40;1.00;;;;;;5094780;28;20151;-75
2020/12/06 12:05:53;;;;;;;29.40;13.63;;;6.40;1.00;;;;;;5087765;28;20621;-75
2020/12/06 12:08:19;;;;;;;95.67;36.93;;;6.40;1.00;;;;;;5074076;28;20459;-75
2020/12/06 12:10:44;;;;;;;41.30;17.00;;;6.50;1.00;;;;;;5080883;28;20633;-76
2020/12/06 12:13:10;;;;;;;24.50;11.40;;;9.10;1.00;;;;;;5086169;28;20217;-75
2020/12/06 12:15:35;;;;;;;25.67;11.00;;;6.50;1.00;;;;;;5094229;28;20170;-75
2020/12/06 12:18:01;;;;;;;82.03;33.17;;;6.50;1.00;;;;;;5094634;28;20166;-75
2020/12/06 12:20:27;;;;;;;33.27;15.23;;;6.50;1.00;;;;;;5094085;28;20586;-75
2020/12/06 12:22:52;;;;;;;20.33;8.90;;;7.50;1.00;;;;;;5092924;28;20175;-75
2020/12/06 12:25:18;;;;;;;18.70;9.40;;;6.70;1.00;;;;;;5091944;28;20163;-75
2020/12/06 12:27:44;;;;;;;19.13;8.73;;;6.70;1.00;;;;;;5085112;28;20609;-75
2020/12/06 12:30:10;;;;;;;20.93;9.10;;;6.80;1.00;;;;;;5075753;28;20424;-76
2020/12/06 12:32:37;;;;;;;21.57;8.40;;;6.80;1.00;;;;;;5090922;28;20248;-74
2020/12/06 12:35:03;;;;;;;17.83;8.10;;;6.80;1.00;;;;;;5090452;28;20402;-74
2020/12/06 12:37:29;;;;;;;20.27;8.57;;;;;;;;;;5073526;28;20417;-74
2020/12/06 12:39:55;;;;;;;22.23;8.20;;;;;;;;;;5078540;28;20760;-74
2020/12/06 12:42:21;;;;;;;55.83;22.63;;;;;;;;;;5073596;28;20540;-74
2020/12/06 12:44:47;;;;;;;22.20;9.30;;;6.70;1.00;;;;;;5077020;28;20412;-74
2020/12/06 12:47:12;;;;;;;17.80;8.30;;;6.80;1.00;;;;;;5074533;28;21017;-73
2020/12/06 12:49:40;;;;;;;18.27;8.27;;;;;;;;;;5073438;28;20171;-73
2020/12/06 12:52:05;;;;;;;22.17;8.47;;;6.80;1.00;;;;;;5075479;28;20171;-74
2020/12/06 12:54:32;;;;;;;17.33;7.90;;;8.90;1.00;;;;;;5093270;28;20431;-74
2020/12/06 12:56:58;;;;;;;21.07;8.87;;;7.20;1.00;;;;;;5076076;28;20172;-74
2020/12/06 12:59:23;;;;;;;17.60;7.47;;;6.80;1.00;;;;;;5073335;28;20485;-74
2020/12/06 13:01:49;;;;;;;17.20;8.40;;;8.20;1.00;;;;;;5082251;28;20668;-74
2020/12/06 13:04:15;;;;;;;37.93;16.47;;;8.40;1.00;;;;;;5093033;28;20163;-75
2020/12/06 13:06:40;;;;;;;19.70;7.73;;;7.70;1.00;;;;;;5078566;28;20170;-75
2020/12/06 13:09:06;;;;;;;15.67;7.50;;;8.40;1.00;;;;;;5071876;28;20170;-75
2020/12/06 13:11:31;;;;;;;14.77;6.90;;;8.70;1.00;;;;;;5082963;28;20174;-75
2020/12/06 13:14:11;;;;;;;18.50;7.70;;;6.60;1.00;;;;;;5076911;28;20171;-76
2020/12/06 13:17:04;;;;;;;20.03;8.00;;;6.50;1.00;;;;;;5088119;28;20208;-75
2020/12/06 13:19:30;;;;;;;13.77;6.47;;;6.50;1.00;;;;;;5080455;28;20802;-75
2020/12/06 13:21:59;;;;;;;17.17;7.87;;;6.60;1.00;;;;;;5089959;28;20451;-76
2020/12/06 13:24:52;;;;;;;20.07;7.47;;;6.70;1.00;;;;;;5092191;28;20174;-75
2020/12/06 13:27:35;;;;;;;17.30;7.37;;;6.70;1.00;;;;;;5078370;28;20920;-75
2020/12/06 13:30:46;;;;;;;14.37;6.73;;;6.60;1.00;;;;;;5073952;28;20468;-75
2020/12/06 13:33:12;;;;;;;15.47;7.33;;;6.60;1.00;;;;;;5088480;28;20504;-76
2020/12/06 13:35:41;;;;;;;11.97;6.70;;;6.60;1.00;;;;;;5094250;28;20448;-76
2020/12/06 13:38:34;;;;;;;14.60;6.90;;;6.70;1.00;;;;;;5094211;28;20625;-76
2020/12/06 13:44:22;;;;;;;19.53;8.50;;;6.80;1.00;;;;;;5077794;28;20466;-76
2020/12/06 13:46:48;;;;;;;15.37;8.00;;;6.90;1.00;;;;;;5073467;28;20436;-75
2020/12/06 13:49:13;;;;;;;20.60;8.00;;;6.90;1.00;;;;;;5073966;28;20585;-74
2020/12/06 13:51:41;;;;;;;20.03;10.80;;;6.90;1.00;;;;;;5073720;28;20807;-74
2020/12/06 13:54:11;;;;;;;28.43;11.17;;;6.90;1.00;;;;;;5078208;28;20536;-74
2020/12/06 13:56:36;;;;;;;24.30;8.70;;;6.90;1.00;;;;;;5081597;28;20441;-74
2020/12/06 13:59:02;;;;;;;14.77;7.63;;;6.90;1.00;;;;;;5093704;28;20431;-75
2020/12/06 14:01:27;;;;;;;16.97;7.60;;;6.90;1.00;;;;;;5073520;28;20520;-74
2020/12/06 14:03:53;;;;;;;14.57;7.17;;;7.00;1.00;;;;;;5072739;28;20174;-75
2020/12/06 14:06:19;;;;;;;12.70;6.40;;;6.90;1.00;;;;;;5074247;28;20171;-75
2020/12/06 14:08:45;;;;;;;14.30;6.90;;;6.90;1.00;;;;;;5073550;28;20653;-74
2020/12/06 14:11:11;;;;;;;12.43;6.90;;;7.00;1.00;;;;;;5073128;28;20417;-74
2020/12/06 14:13:37;;;;;;;13.90;7.20;;;7.80;1.00;;;;;;5073573;28;20182;-74
2020/12/06 14:16:05;;;;;;;21.70;8.50;;;8.30;1.00;;;;;;5071876;28;20463;-74
2020/12/06 14:18:41;;;;;;;20.00;7.57;;;6.90;1.00;;;;;;5073513;28;20389;-76
2020/12/06 14:21:11;;;;;;;13.20;6.27;;;7.00;1.00;;;;;;5073311;28;20460;-76
2020/12/06 14:23:47;;;;;;;22.90;8.03;;;6.90;1.00;;;;;;5091585;28;20432;-76
2020/12/06 14:26:23;;;;;;;22.67;10.37;;;6.80;1.00;;;;;;5076349;28;20421;-77
2020/12/06 14:29:10;;;;;;;19.93;7.77;;;6.80;1.00;;;;;;5073046;28;20436;-78
2020/12/06 14:35:16;;;;;;;17.17;7.83;;;6.70;1.00;;;;;;5095037;28;20748;-77
2020/12/06 14:37:53;;;;;;;15.13;6.90;;;6.70;1.00;;;;;;5095271;28;20448;-77
2020/12/06 14:40:29;;;;;;;15.60;6.33;;;6.80;1.00;;;;;;5096898;28;20428;-78
2020/12/06 14:42:54;;;;;;;13.33;6.47;;;6.80;1.00;;;;;;5095718;28;20898;-77
2020/12/06 14:45:23;;;;;;;12.30;6.60;;;6.70;1.00;;;;;;5096680;28;20420;-78
2020/12/06 14:48:05;;;;;;;15.67;6.60;;;6.80;1.00;;;;;;5092389;28;20167;-77
2020/12/06 14:50:35;;;;;;;15.73;7.40;;;6.80;1.00;;;;;;5087930;28;20441;-74
2020/12/06 14:53:00;;;;;;;17.60;7.50;;;6.80;1.00;;;;;;5076536;28;20420;-73
2020/12/06 14:55:27;;;;;;;18.53;8.47;;;6.70;1.00;;;;;;5076121;28;20405;-74
2020/12/06 14:57:59;;;;;;;14.13;7.33;;;6.70;1.00;;;;;;5080156;28;20626;-74
2020/12/06 15:00:29;;;;;;;18.53;9.17;;;6.70;1.00;;;;;;5076432;28;20374;-74
2020/12/06 15:02:54;;;;;;;17.70;8.13;;;6.70;1.00;;;;;;5076179;28;21023;-74
2020/12/06 15:05:23;;;;;;;12.27;6.33;;;6.70;1.00;;;;;;5076889;28;20512;-76
2020/12/06 15:07:59;;;;;;;13.17;7.43;;;9.10;1.00;;;;;;5088881;28;20648;-77
2020/12/06 15:11:16;;;;;;;19.53;8.70;;;6.70;1.00;;;;;;5096506;28;20433;-76
2020/12/06 15:13:42;;;;;;;16.60;8.67;;;6.70;1.00;;;;;;5096464;28;20385;-75
2020/12/06 15:16:40;;;;;;;15.10;7.70;;;6.70;1.00;;;;;;5096532;28;20399;-76
2020/12/06 15:19:06;;;;;;;16.50;7.20;;;6.70;1.00;;;;;;5083876;28;20248;-72
2020/12/06 15:21:32;;;;;;;11.40;6.23;;;6.70;1.00;;;;;;5077316;28;20950;-73
2020/12/06 15:23:58;;;;;;;16.97;7.40;;;6.70;1.00;;;;;;5086787;28;20198;-75